sensor_id;sensor_type;location;lat;lon;timestamp;temperature;humidity
52044;DHT22;38053;53.100;6.078;2023-03-11T00:02:14;-0.20;99.90
52044;DHT22;38053;53.100;6.078;2023-03-11T00:04:40;-0.20;99.90
52044;DHT22;38053;53.100;6.078;2023-03-11T00:07:07;-0.20;99.90
52044;DHT22;38053;53.100;6.078;2023-03-11T00:09:33;-0.20;99.90
52044;DHT22;38053;53.100;6.078;2023-03-11T00:12:00;-0.10;99.90
52044;DHT22;38053;53.100;6.078;2023-03-11T00:14:26;-0.10;99.90
52044;DHT22;38053;53.100;6.078;2023-03-11T00:17:00;-0.10;99.90
52044;DHT22;38053;53.100;6.078;2023-03-11T00:19:26;-0.10;99.90
52044;DHT22;38053;53.100;6.078;2023-03-11T00:21:51;-0.10;99.90
52044;DHT22;38053;53.100;6.078;2023-03-11T00:24:17;-0.10;99.90
52044;DHT22;38053;53.100;6.078;2023-03-11T00:26:43;-0.10;99.90
52044;DHT22;38053;53.100;6.078;2023-03-11T00:29:08;-0.10;99.90
52044;DHT22;38053;53.100;6.078;2023-03-11T00:31:34;-0.20;99.90
52044;DHT22;38053;53.100;6.078;2023-03-11T00:34:00;-0.20;99.90
52044;DHT22;38053;53.100;6.078;2023-03-11T00:36:30;-0.20;99.90
52044;DHT22;38053;53.100;6.078;2023-03-11T00:38:58;-0.20;99.90
52044;DHT22;38053;53.100;6.078;2023-03-11T00:41:24;-0.20;99.90
52044;DHT22;38053;53.100;6.078;2023-03-11T00:43:50;-0.20;99.90
52044;DHT22;38053;53.100;6.078;2023-03-11T00:46:16;-0.20;99.90
52044;DHT22;38053;53.100;6.078;2023-03-11T00:48:41;-0.20;99.90
52044;DHT22;38053;53.100;6.078;2023-03-11T00:51:12;-0.20;99.90
52044;DHT22;38053;53.100;6.078;2023-03-11T00:53:39;-0.20;99.90
52044;DHT22;38053;53.100;6.078;2023-03-11T00:56:06;-0.20;99.90
52044;DHT22;38053;53.100;6.078;2023-03-11T00:58:32;-0.20;99.90
52044;DHT22;38053;53.100;6.078;2023-03-11T01:01:10;-0.20;99.90
52044;DHT22;38053;53.100;6.078;2023-03-11T01:03:36;-0.20;99.90
52044;DHT22;38053;53.100;6.078;2023-03-11T01:06:03;-0.20;99.90
52044;DHT22;38053;53.100;6.078;2023-03-11T01:08:29;-0.30;99.90
52044;DHT22;38053;53.100;6.078;2023-03-11T01:10:57;-0.40;99.90
52044;DHT22;38053;53.100;6.078;2023-03-11T01:13:23;-0.40;99.90
52044;DHT22;38053;53.100;6.078;2023-03-11T01:15:48;-0.40;99.90
52044;DHT22;38053;53.100;6.078;2023-03-11T01:18:14;-0.40;99.90
52044;DHT22;38053;53.100;6.078;2023-03-11T01:20:41;-0.50;99.90
52044;DHT22;38053;53.100;6.078;2023-03-11T01:23:07;-0.50;99.90
52044;DHT22;38053;53.100;6.078;2023-03-11T01:25:33;-0.50;99.90
52044;DHT22;38053;53.100;6.078;2023-03-11T01:27:59;-0.50;99.90
52044;DHT22;38053;53.100;6.078;2023-03-11T01:30:26;-0.50;99.90
52044;DHT22;38053;53.100;6.078;2023-03-11T01:32:54;-0.50;99.90
52044;DHT22;38053;53.100;6.078;2023-03-11T01:35:22;-0.40;99.90
52044;DHT22;38053;53.100;6.078;2023-03-11T01:37:48;-0.40;99.90
52044;DHT22;38053;53.100;6.078;2023-03-11T01:40:45;-0.40;99.90
52044;DHT22;38053;53.100;6.078;2023-03-11T01:43:38;-0.40;99.90
52044;DHT22;38053;53.100;6.078;2023-03-11T01:49:17;-0.30;99.90
52044;DHT22;38053;53.100;6.078;2023-03-11T01:51:47;-0.40;99.90
52044;DHT22;38053;53.100;6.078;2023-03-11T01:54:18;-0.40;99.90
52044;DHT22;38053;53.100;6.078;2023-03-11T01:56:45;-0.50;99.90
52044;DHT22;38053;53.100;6.078;2023-03-11T01:59:16;-0.50;99.90
52044;DHT22;38053;53.100;6.078;2023-03-11T02:04:41;-0.70;99.90
52044;DHT22;38053;53.100;6.078;2023-03-11T02:07:08;-0.80;99.90
52044;DHT22;38053;53.100;6.078;2023-03-11T02:09:36;-0.90;99.90
52044;DHT22;38053;53.100;6.078;2023-03-11T02:12:06;-0.90;99.90
52044;DHT22;38053;53.100;6.078;2023-03-11T02:14:34;-1.00;99.90
52044;DHT22;38053;53.100;6.078;2023-03-11T02:17:00;-1.00;99.90
52044;DHT22;38053;53.100;6.078;2023-03-11T02:22:19;-1.20;99.90
52044;DHT22;38053;53.100;6.078;2023-03-11T02:27:36;-1.20;99.90
52044;DHT22;38053;53.100;6.078;2023-03-11T02:30:05;-1.30;99.90
52044;DHT22;38053;53.100;6.078;2023-03-11T02:32:32;-1.30;99.90
52044;DHT22;38053;53.100;6.078;2023-03-11T02:34:57;-1.40;99.90
52044;DHT22;38053;53.100;6.078;2023-03-11T02:37:23;-1.50;99.90
52044;DHT22;38053;53.100;6.078;2023-03-11T02:39:54;-1.50;99.90
52044;DHT22;38053;53.100;6.078;2023-03-11T02:42:39;-1.60;99.90
52044;DHT22;38053;53.100;6.078;2023-03-11T02:45:13;-1.60;99.90
52044;DHT22;38053;53.100;6.078;2023-03-11T02:47:41;-1.60;99.90
52044;DHT22;38053;53.100;6.078;2023-03-11T02:50:10;-1.60;99.90
52044;DHT22;38053;53.100;6.078;2023-03-11T02:52:36;-1.60;99.90
52044;DHT22;38053;53.100;6.078;2023-03-11T02:55:03;-1.50;99.90
52044;DHT22;38053;53.100;6.078;2023-03-11T02:57:31;-1.50;99.90
52044;DHT22;38053;53.100;6.078;2023-03-11T02:59:57;-1.50;99.90
52044;DHT22;38053;53.100;6.078;2023-03-11T03:02:24;-1.50;99.90
52044;DHT22;38053;53.100;6.078;2023-03-11T03:04:50;-1.50;99.90
52044;DHT22;38053;53.100;6.078;2023-03-11T03:07:15;-1.50;99.90
52044;DHT22;38053;53.100;6.078;2023-03-11T03:09:41;-1.40;99.90
52044;DHT22;38053;53.100;6.078;2023-03-11T03:12:07;-1.40;99.90
52044;DHT22;38053;53.100;6.078;2023-03-11T03:14:33;-1.50;99.90
52044;DHT22;38053;53.100;6.078;2023-03-11T03:16:58;-1.50;99.90
52044;DHT22;38053;53.100;6.078;2023-03-11T03:19:24;-1.50;99.90
52044;DHT22;38053;53.100;6.078;2023-03-11T03:21:53;-1.60;99.90
52044;DHT22;38053;53.100;6.078;2023-03-11T03:24:20;-1.60;99.90
52044;DHT22;38053;53.100;6.078;2023-03-11T03:26:46;-1.70;99.90
52044;DHT22;38053;53.100;6.078;2023-03-11T03:29:11;-1.70;99.90
52044;DHT22;38053;53.100;6.078;2023-03-11T03:31:37;-1.70;99.90
52044;DHT22;38053;53.100;6.078;2023-03-11T03:34:03;-1.80;99.90
52044;DHT22;38053;53.100;6.078;2023-03-11T03:36:29;-1.80;99.90
52044;DHT22;38053;53.100;6.078;2023-03-11T03:38:55;-1.90;99.90
52044;DHT22;38053;53.100;6.078;2023-03-11T03:41:22;-1.90;99.90
52044;DHT22;38053;53.100;6.078;2023-03-11T03:43:48;-2.00;99.90
52044;DHT22;38053;53.100;6.078;2023-03-11T03:46:14;-2.00;99.90
52044;DHT22;38053;53.100;6.078;2023-03-11T03:48:41;-2.00;99.90
52044;DHT22;38053;53.100;6.078;2023-03-11T03:51:10;-2.10;99.90
52044;DHT22;38053;53.100;6.078;2023-03-11T03:53:36;-2.20;99.90
52044;DHT22;38053;53.100;6.078;2023-03-11T03:56:07;-2.20;99.90
52044;DHT22;38053;53.100;6.078;2023-03-11T03:58:33;-2.30;99.90
52044;DHT22;38053;53.100;6.078;2023-03-11T04:00:59;-2.40;99.90
52044;DHT22;38053;53.100;6.078;2023-03-11T04:03:27;-2.40;99.90
52044;DHT22;38053;53.100;6.078;2023-03-11T04:05:53;-2.50;99.90
52044;DHT22;38053;53.100;6.078;2023-03-11T04:08:19;-2.40;99.90
52044;DHT22;38053;53.100;6.078;2023-03-11T04:10:55;-2.50;99.90
52044;DHT22;38053;53.100;6.078;2023-03-11T04:13:24;-2.50;99.90
52044;DHT22;38053;53.100;6.078;2023-03-11T04:15:50;-2.60;99.90
52044;DHT22;38053;53.100;6.078;2023-03-11T04:18:16;-2.60;99.90
52044;DHT22;38053;53.100;6.078;2023-03-11T04:20:41;-2.60;99.90
52044;DHT22;38053;53.100;6.078;2023-03-11T04:23:07;-2.70;99.90
52044;DHT22;38053;53.100;6.078;2023-03-11T04:25:33;-2.70;99.90
52044;DHT22;38053;53.100;6.078;2023-03-11T04:27:59;-2.70;99.90
52044;DHT22;38053;53.100;6.078;2023-03-11T04:30:27;-2.80;99.90
52044;DHT22;38053;53.100;6.078;2023-03-11T04:32:53;-2.90;99.90
52044;DHT22;38053;53.100;6.078;2023-03-11T04:35:19;-2.90;99.90
52044;DHT22;38053;53.100;6.078;2023-03-11T04:37:45;-3.00;99.90
52044;DHT22;38053;53.100;6.078;2023-03-11T04:40:11;-3.10;99.90
52044;DHT22;38053;53.100;6.078;2023-03-11T04:42:38;-3.10;99.90
52044;DHT22;38053;53.100;6.078;2023-03-11T04:45:07;-3.20;99.90
52044;DHT22;38053;53.100;6.078;2023-03-11T04:47:36;-3.20;99.90
52044;DHT22;38053;53.100;6.078;2023-03-11T04:50:02;-3.20;99.90
52044;DHT22;38053;53.100;6.078;2023-03-11T04:52:28;-3.30;99.90
52044;DHT22;38053;53.100;6.078;2023-03-11T04:54:54;-3.30;99.90
52044;DHT22;38053;53.100;6.078;2023-03-11T04:57:21;-3.40;99.90
52044;DHT22;38053;53.100;6.078;2023-03-11T04:59:47;-3.40;99.90
52044;DHT22;38053;53.100;6.078;2023-03-11T05:02:13;-3.40;99.90
52044;DHT22;38053;53.100;6.078;2023-03-11T05:04:39;-3.50;99.90
52044;DHT22;38053;53.100;6.078;2023-03-11T05:07:04;-3.50;99.90
52044;DHT22;38053;53.100;6.078;2023-03-11T05:09:30;-3.50;99.90
52044;DHT22;38053;53.100;6.078;2023-03-11T05:11:56;-3.50;99.90
52044;DHT22;38053;53.100;6.078;2023-03-11T05:14:22;-3.50;99.90
52044;DHT22;38053;53.100;6.078;2023-03-11T05:16:47;-3.60;99.90
52044;DHT22;38053;53.100;6.078;2023-03-11T05:19:13;-3.60;99.90
52044;DHT22;38053;53.100;6.078;2023-03-11T05:22:00;-3.60;99.90
52044;DHT22;38053;53.100;6.078;2023-03-11T05:24:27;-3.60;99.90
52044;DHT22;38053;53.100;6.078;2023-03-11T05:26:53;-3.60;99.90
52044;DHT22;38053;53.100;6.078;2023-03-11T05:29:19;-3.60;99.90
52044;DHT22;38053;53.100;6.078;2023-03-11T05:31:45;-3.60;99.90
52044;DHT22;38053;53.100;6.078;2023-03-11T05:34:11;-3.60;99.90
52044;DHT22;38053;53.100;6.078;2023-03-11T05:36:37;-3.60;99.90
52044;DHT22;38053;53.100;6.078;2023-03-11T05:39:03;-3.70;99.90
52044;DHT22;38053;53.100;6.078;2023-03-11T05:41:30;-3.70;99.90
52044;DHT22;38053;53.100;6.078;2023-03-11T05:43:55;-3.70;99.90
52044;DHT22;38053;53.100;6.078;2023-03-11T05:46:24;-3.80;99.90
52044;DHT22;38053;53.100;6.078;2023-03-11T05:48:50;-3.80;99.90
52044;DHT22;38053;53.100;6.078;2023-03-11T05:51:16;-3.80;99.90
52044;DHT22;38053;53.100;6.078;2023-03-11T05:53:43;-3.90;99.90
52044;DHT22;38053;53.100;6.078;2023-03-11T05:56:21;-3.90;99.90
52044;DHT22;38053;53.100;6.078;2023-03-11T05:58:47;-4.00;99.90
52044;DHT22;38053;53.100;6.078;2023-03-11T06:01:15;-4.00;99.90
52044;DHT22;38053;53.100;6.078;2023-03-11T06:03:42;-4.00;99.90
52044;DHT22;38053;53.100;6.078;2023-03-11T06:06:11;-4.00;99.90
52044;DHT22;38053;53.100;6.078;2023-03-11T06:08:37;-4.00;99.90
52044;DHT22;38053;53.100;6.078;2023-03-11T06:11:08;-4.00;99.90
52044;DHT22;38053;53.100;6.078;2023-03-11T06:13:34;-4.00;99.90
52044;DHT22;38053;53.100;6.078;2023-03-11T06:16:00;-4.00;99.90
52044;DHT22;38053;53.100;6.078;2023-03-11T06:18:26;-4.00;99.90
52044;DHT22;38053;53.100;6.078;2023-03-11T06:20:53;-4.10;99.90
52044;DHT22;38053;53.100;6.078;2023-03-11T06:23:19;-4.10;99.90
52044;DHT22;38053;53.100;6.078;2023-03-11T06:25:54;-4.00;99.90
52044;DHT22;38053;53.100;6.078;2023-03-11T06:28:20;-4.00;99.90
52044;DHT22;38053;53.100;6.078;2023-03-11T06:30:46;-4.00;99.90
52044;DHT22;38053;53.100;6.078;2023-03-11T06:33:11;-4.00;99.90
52044;DHT22;38053;53.100;6.078;2023-03-11T06:35:38;-3.90;99.90
52044;DHT22;38053;53.100;6.078;2023-03-11T06:38:04;-3.90;99.90
52044;DHT22;38053;53.100;6.078;2023-03-11T06:40:30;-3.80;99.90
52044;DHT22;38053;53.100;6.078;2023-03-11T06:42:56;-3.80;99.90
52044;DHT22;38053;53.100;6.078;2023-03-11T06:45:21;-3.70;99.90
52044;DHT22;38053;53.100;6.078;2023-03-11T06:47:49;-3.70;99.90
52044;DHT22;38053;53.100;6.078;2023-03-11T06:50:15;-3.70;99.90
52044;DHT22;38053;53.100;6.078;2023-03-11T06:52:40;-3.60;99.90
52044;DHT22;38053;53.100;6.078;2023-03-11T06:55:06;-3.50;99.90
52044;DHT22;38053;53.100;6.078;2023-03-11T06:57:33;-3.50;99.90
52044;DHT22;38053;53.100;6.078;2023-03-11T06:59:58;-3.40;99.90
52044;DHT22;38053;53.100;6.078;2023-03-11T07:02:26;-3.30;99.90
52044;DHT22;38053;53.100;6.078;2023-03-11T07:04:51;-3.30;99.90
52044;DHT22;38053;53.100;6.078;2023-03-11T07:07:17;-3.20;99.90
52044;DHT22;38053;53.100;6.078;2023-03-11T07:09:44;-3.20;99.90
52044;DHT22;38053;53.100;6.078;2023-03-11T07:12:10;-3.20;99.90
52044;DHT22;38053;53.100;6.078;2023-03-11T07:14:36;-3.10;99.90
52044;DHT22;38053;53.100;6.078;2023-03-11T07:17:01;-3.00;99.90
52044;DHT22;38053;53.100;6.078;2023-03-11T07:19:33;-2.90;99.90
52044;DHT22;38053;53.100;6.078;2023-03-11T07:21:58;-2.80;99.90
52044;DHT22;38053;53.100;6.078;2023-03-11T07:24:33;-2.80;99.90
52044;DHT22;38053;53.100;6.078;2023-03-11T07:26:59;-2.70;99.90
52044;DHT22;38053;53.100;6.078;2023-03-11T07:29:25;-2.60;99.90
52044;DHT22;38053;53.100;6.078;2023-03-11T07:31:50;-2.50;99.90
52044;DHT22;38053;53.100;6.078;2023-03-11T07:34:16;-2.40;99.90
52044;DHT22;38053;53.100;6.078;2023-03-11T07:36:42;-2.30;99.90
52044;DHT22;38053;53.100;6.078;2023-03-11T07:39:13;-2.20;99.90
52044;DHT22;38053;53.100;6.078;2023-03-11T07:41:39;-2.10;99.90
52044;DHT22;38053;53.100;6.078;2023-03-11T07:44:05;-2.00;99.90
52044;DHT22;38053;53.100;6.078;2023-03-11T07:46:31;-1.90;99.90
52044;DHT22;38053;53.100;6.078;2023-03-11T07:48:57;-1.80;99.90
52044;DHT22;38053;53.100;6.078;2023-03-11T07:51:28;-1.70;99.90
52044;DHT22;38053;53.100;6.078;2023-03-11T07:53:56;-1.60;99.90
52044;DHT22;38053;53.100;6.078;2023-03-11T07:56:23;-1.40;99.90
52044;DHT22;38053;53.100;6.078;2023-03-11T07:58:50;-1.30;99.90
52044;DHT22;38053;53.100;6.078;2023-03-11T08:01:22;-1.20;99.90
52044;DHT22;38053;53.100;6.078;2023-03-11T08:03:50;-1.10;99.90
52044;DHT22;38053;53.100;6.078;2023-03-11T08:06:22;-1.00;99.90
52044;DHT22;38053;53.100;6.078;2023-03-11T08:08:48;-1.00;99.90
52044;DHT22;38053;53.100;6.078;2023-03-11T08:11:15;-0.90;99.90
52044;DHT22;38053;53.100;6.078;2023-03-11T08:13:42;-0.80;99.90
52044;DHT22;38053;53.100;6.078;2023-03-11T08:16:11;-0.70;99.90
52044;DHT22;38053;53.100;6.078;2023-03-11T08:18:36;-0.60;99.90
52044;DHT22;38053;53.100;6.078;2023-03-11T08:21:07;-0.60;99.90
52044;DHT22;38053;53.100;6.078;2023-03-11T08:23:33;-0.50;99.90
52044;DHT22;38053;53.100;6.078;2023-03-11T08:26:08;-0.40;99.90
52044;DHT22;38053;53.100;6.078;2023-03-11T08:28:35;-0.40;99.90
52044;DHT22;38053;53.100;6.078;2023-03-11T08:31:09;-0.30;99.90
52044;DHT22;38053;53.100;6.078;2023-03-11T08:33:36;-0.20;99.90
52044;DHT22;38053;53.100;6.078;2023-03-11T08:36:02;-0.20;99.90
52044;DHT22;38053;53.100;6.078;2023-03-11T08:38:27;-0.10;99.90
52044;DHT22;38053;53.100;6.078;2023-03-11T08:40:53;0.00;99.90
52044;DHT22;38053;53.100;6.078;2023-03-11T08:43:21;0.10;99.90
52044;DHT22;38053;53.100;6.078;2023-03-11T08:45:46;0.20;99.90
52044;DHT22;38053;53.100;6.078;2023-03-11T08:48:14;0.30;99.90
52044;DHT22;38053;53.100;6.078;2023-03-11T08:50:42;0.40;99.90
52044;DHT22;38053;53.100;6.078;2023-03-11T08:53:08;0.50;99.90
52044;DHT22;38053;53.100;6.078;2023-03-11T08:55:37;0.60;99.90
52044;DHT22;38053;53.100;6.078;2023-03-11T08:58:03;0.60;99.90
52044;DHT22;38053;53.100;6.078;2023-03-11T09:00:28;0.70;99.90
52044;DHT22;38053;53.100;6.078;2023-03-11T09:02:54;0.80;99.90
52044;DHT22;38053;53.100;6.078;2023-03-11T09:05:20;0.80;99.90
52044;DHT22;38053;53.100;6.078;2023-03-11T09:07:46;0.90;99.90
52044;DHT22;38053;53.100;6.078;2023-03-11T09:10:14;1.00;99.90
52044;DHT22;38053;53.100;6.078;2023-03-11T09:12:40;1.10;99.90
52044;DHT22;38053;53.100;6.078;2023-03-11T09:15:07;1.20;99.90
52044;DHT22;38053;53.100;6.078;2023-03-11T09:17:32;1.30;99.90
52044;DHT22;38053;53.100;6.078;2023-03-11T09:19:58;1.40;99.90
52044;DHT22;38053;53.100;6.078;2023-03-11T09:22:24;1.40;99.90
52044;DHT22;38053;53.100;6.078;2023-03-11T09:24:50;1.50;99.90
52044;DHT22;38053;53.100;6.078;2023-03-11T09:27:15;1.60;99.90
52044;DHT22;38053;53.100;6.078;2023-03-11T09:29:42;1.70;99.90
52044;DHT22;38053;53.100;6.078;2023-03-11T09:32:11;1.80;99.90
52044;DHT22;38053;53.100;6.078;2023-03-11T09:34:37;1.80;99.90
52044;DHT22;38053;53.100;6.078;2023-03-11T09:37:03;2.00;99.90
52044;DHT22;38053;53.100;6.078;2023-03-11T09:39:29;2.00;99.90
52044;DHT22;38053;53.100;6.078;2023-03-11T09:41:57;2.10;99.90
52044;DHT22;38053;53.100;6.078;2023-03-11T09:55:59;2.70;99.90
52044;DHT22;38053;53.100;6.078;2023-03-11T09:58:53;2.80;99.90
52044;DHT22;38053;53.100;6.078;2023-03-11T10:01:38;3.00;99.90
52044;DHT22;38053;53.100;6.078;2023-03-11T10:04:27;3.10;99.90
52044;DHT22;38053;53.100;6.078;2023-03-11T10:06:55;3.20;99.90
52044;DHT22;38053;53.100;6.078;2023-03-11T10:09:41;3.40;99.90
52044;DHT22;38053;53.100;6.078;2023-03-11T10:17:49;3.80;99.90
52044;DHT22;38053;53.100;6.078;2023-03-11T10:23:52;4.10;99.90
52044;DHT22;38053;53.100;6.078;2023-03-11T10:26:34;4.20;99.90
52044;DHT22;38053;53.100;6.078;2023-03-11T10:31:45;4.60;99.90
52044;DHT22;38053;53.100;6.078;2023-03-11T10:34:27;4.90;99.90
52044;DHT22;38053;53.100;6.078;2023-03-11T10:37:09;5.10;99.90
52044;DHT22;38053;53.100;6.078;2023-03-11T10:39:39;5.40;99.90
52044;DHT22;38053;53.100;6.078;2023-03-11T10:42:13;5.60;99.90
52044;DHT22;38053;53.100;6.078;2023-03-11T10:44:42;5.80;99.90
52044;DHT22;38053;53.100;6.078;2023-03-11T10:47:22;5.90;99.90
52044;DHT22;38053;53.100;6.078;2023-03-11T10:49:49;5.90;99.90
52044;DHT22;38053;53.100;6.078;2023-03-11T10:52:15;5.90;99.90
52044;DHT22;38053;53.100;6.078;2023-03-11T10:54:43;6.00;99.90
52044;DHT22;38053;53.100;6.078;2023-03-11T10:57:33;5.90;99.90
52044;DHT22;38053;53.100;6.078;2023-03-11T11:00:01;5.90;99.90
52044;DHT22;38053;53.100;6.078;2023-03-11T11:02:39;5.90;99.90
52044;DHT22;38053;53.100;6.078;2023-03-11T11:07:41;6.20;99.90
52044;DHT22;38053;53.100;6.078;2023-03-11T11:12:52;6.40;99.90
52044;DHT22;38053;53.100;6.078;2023-03-11T11:15:37;6.50;99.90
52044;DHT22;38053;53.100;6.078;2023-03-11T11:18:23;6.50;99.90
52044;DHT22;38053;53.100;6.078;2023-03-11T11:23:46;6.50;99.90
52044;DHT22;38053;53.100;6.078;2023-03-11T11:26:22;6.50;99.90
52044;DHT22;38053;53.100;6.078;2023-03-11T11:31:44;6.40;99.90
52044;DHT22;38053;53.100;6.078;2023-03-11T11:34:27;6.40;99.90
52044;DHT22;38053;53.100;6.078;2023-03-11T11:36:55;6.50;99.90
52044;DHT22;38053;53.100;6.078;2023-03-11T11:39:22;6.70;99.90
52044;DHT22;38053;53.100;6.078;2023-03-11T11:41:54;6.90;99.90
52044;DHT22;38053;53.100;6.078;2023-03-11T11:44:21;6.90;99.90
52044;DHT22;38053;53.100;6.078;2023-03-11T11:47:01;7.00;99.90
52044;DHT22;38053;53.100;6.078;2023-03-11T11:49:32;7.10;99.90
52044;DHT22;38053;53.100;6.078;2023-03-11T11:54:53;7.50;99.90
52044;DHT22;38053;53.100;6.078;2023-03-11T11:57:24;7.80;99.90
52044;DHT22;38053;53.100;6.078;2023-03-11T11:59:50;8.00;99.90
52044;DHT22;38053;53.100;6.078;2023-03-11T12:05:31;8.00;99.90
52044;DHT22;38053;53.100;6.078;2023-03-11T12:08:26;7.70;99.90
52044;DHT22;38053;53.100;6.078;2023-03-11T12:11:03;7.60;99.90
52044;DHT22;38053;53.100;6.078;2023-03-11T12:13:49;7.40;99.90
52044;DHT22;38053;53.100;6.078;2023-03-11T12:19:28;7.80;99.90
52044;DHT22;38053;53.100;6.078;2023-03-11T12:27:28;8.60;99.90
52044;DHT22;38053;53.100;6.078;2023-03-11T12:30:01;8.30;99.90
52044;DHT22;38053;53.100;6.078;2023-03-11T12:32:32;8.10;99.90
52044;DHT22;38053;53.100;6.078;2023-03-11T12:35:22;8.10;99.90
52044;DHT22;38053;53.100;6.078;2023-03-11T12:38:15;8.40;99.90
52044;DHT22;38053;53.100;6.078;2023-03-11T12:41:01;8.70;99.90
52044;DHT22;38053;53.100;6.078;2023-03-11T12:46:01;9.50;99.90
52044;DHT22;38053;53.100;6.078;2023-03-11T12:48:32;9.80;99.90
52044;DHT22;38053;53.100;6.078;2023-03-11T12:51:00;10.20;99.90
52044;DHT22;38053;53.100;6.078;2023-03-11T12:53:48;10.30;99.90
52044;DHT22;38053;53.100;6.078;2023-03-11T13:04:22;11.40;99.90
52044;DHT22;38053;53.100;6.078;2023-03-11T13:09:30;12.00;99.90
52044;DHT22;38053;53.100;6.078;2023-03-11T13:11:56;12.10;99.90
52044;DHT22;38053;53.100;6.078;2023-03-11T13:14:25;12.00;99.90
52044;DHT22;38053;53.100;6.078;2023-03-11T13:16:52;11.90;99.90
52044;DHT22;38053;53.100;6.078;2023-03-11T13:21:56;11.40;99.90
52044;DHT22;38053;53.100;6.078;2023-03-11T13:24:38;11.40;99.90
52044;DHT22;38053;53.100;6.078;2023-03-11T13:27:19;11.60;99.90
52044;DHT22;38053;53.100;6.078;2023-03-11T13:30:19;11.80;99.90
52044;DHT22;38053;53.100;6.078;2023-03-11T13:38:06;9.70;99.90
52044;DHT22;38053;53.100;6.078;2023-03-11T13:40:44;9.00;99.90
52044;DHT22;38053;53.100;6.078;2023-03-11T13:43:22;8.60;99.90
52044;DHT22;38053;53.100;6.078;2023-03-11T13:48:30;8.30;99.90
52044;DHT22;38053;53.100;6.078;2023-03-11T13:51:04;8.40;99.90
52044;DHT22;38053;53.100;6.078;2023-03-11T13:53:42;8.60;99.90
52044;DHT22;38053;53.100;6.078;2023-03-11T13:56:16;8.80;99.90
52044;DHT22;38053;53.100;6.078;2023-03-11T13:58:44;8.60;99.90
52044;DHT22;38053;53.100;6.078;2023-03-11T14:01:15;8.60;99.90
52044;DHT22;38053;53.100;6.078;2023-03-11T14:03:43;8.50;99.90
52044;DHT22;38053;53.100;6.078;2023-03-11T14:06:15;8.50;99.90
52044;DHT22;38053;53.100;6.078;2023-03-11T14:08:42;8.40;99.90
52044;DHT22;38053;53.100;6.078;2023-03-11T14:11:17;8.30;99.90
52044;DHT22;38053;53.100;6.078;2023-03-11T14:13:47;8.10;99.90
52044;DHT22;38053;53.100;6.078;2023-03-11T14:16:34;7.90;99.90
52044;DHT22;38053;53.100;6.078;2023-03-11T14:19:15;7.70;99.90
52044;DHT22;38053;53.100;6.078;2023-03-11T14:21:46;7.90;99.90
52044;DHT22;38053;53.100;6.078;2023-03-11T14:24:20;8.10;99.90
52044;DHT22;38053;53.100;6.078;2023-03-11T14:26:50;8.20;99.90
52044;DHT22;38053;53.100;6.078;2023-03-11T14:29:24;8.20;99.90
52044;DHT22;38053;53.100;6.078;2023-03-11T14:31:52;8.30;99.90
52044;DHT22;38053;53.100;6.078;2023-03-11T14:34:20;8.50;99.90
52044;DHT22;38053;53.100;6.078;2023-03-11T14:36:58;8.90;99.90
52044;DHT22;38053;53.100;6.078;2023-03-11T14:39:31;9.00;99.90
52044;DHT22;38053;53.100;6.078;2023-03-11T14:44:36;8.60;99.90
52044;DHT22;38053;53.100;6.078;2023-03-11T14:50:25;7.60;99.90
52044;DHT22;38053;53.100;6.078;2023-03-11T14:55:40;7.00;99.90
52044;DHT22;38053;53.100;6.078;2023-03-11T15:00:55;6.80;99.90
52044;DHT22;38053;53.100;6.078;2023-03-11T15:03:36;7.30;99.90
52044;DHT22;38053;53.100;6.078;2023-03-11T15:06:04;8.40;99.90
52044;DHT22;38053;53.100;6.078;2023-03-11T15:08:36;8.90;99.90
52044;DHT22;38053;53.100;6.078;2023-03-11T15:13:40;8.90;99.90
52044;DHT22;38053;53.100;6.078;2023-03-11T15:16:21;9.20;99.90
52044;DHT22;38053;53.100;6.078;2023-03-11T15:18:48;9.20;99.90
52044;DHT22;38053;53.100;6.078;2023-03-11T15:21:16;8.50;99.90
52044;DHT22;38053;53.100;6.078;2023-03-11T15:23:59;7.70;99.90
52044;DHT22;38053;53.100;6.078;2023-03-11T15:26:34;6.90;99.90
52044;DHT22;38053;53.100;6.078;2023-03-11T15:29:01;6.60;99.90
52044;DHT22;38053;53.100;6.078;2023-03-11T15:31:33;6.50;99.90
52044;DHT22;38053;53.100;6.078;2023-03-11T15:36:53;6.90;99.90
52044;DHT22;38053;53.100;6.078;2023-03-11T15:41:56;7.70;99.90
52044;DHT22;38053;53.100;6.078;2023-03-11T15:47:16;7.50;99.90
52044;DHT22;38053;53.100;6.078;2023-03-11T15:49:42;6.90;99.90
52044;DHT22;38053;53.100;6.078;2023-03-11T15:52:11;6.20;99.90
52044;DHT22;38053;53.100;6.078;2023-03-11T15:54:38;5.60;99.90
52044;DHT22;38053;53.100;6.078;2023-03-11T15:57:16;5.10;99.90
52044;DHT22;38053;53.100;6.078;2023-03-11T15:59:43;4.70;99.90
52044;DHT22;38053;53.100;6.078;2023-03-11T16:02:22;4.70;99.90
52044;DHT22;38053;53.100;6.078;2023-03-11T16:04:49;4.70;99.90
52044;DHT22;38053;53.100;6.078;2023-03-11T16:07:15;4.60;99.90
52044;DHT22;38053;53.100;6.078;2023-03-11T16:09:41;4.50;99.90
52044;DHT22;38053;53.100;6.078;2023-03-11T16:12:17;4.40;99.90
52044;DHT22;38053;53.100;6.078;2023-03-11T16:14:43;4.30;99.90
52044;DHT22;38053;53.100;6.078;2023-03-11T16:17:09;4.20;99.90
52044;DHT22;38053;53.100;6.078;2023-03-11T16:19:57;4.10;99.90
52044;DHT22;38053;53.100;6.078;2023-03-11T16:22:33;4.00;99.90
52044;DHT22;38053;53.100;6.078;2023-03-11T16:25:04;3.90;99.90
52044;DHT22;38053;53.100;6.078;2023-03-11T16:27:35;4.00;99.90
52044;DHT22;38053;53.100;6.078;2023-03-11T16:30:04;4.00;99.90
52044;DHT22;38053;53.100;6.078;2023-03-11T16:32:30;4.00;99.90
52044;DHT22;38053;53.100;6.078;2023-03-11T16:34:56;4.10;99.90
52044;DHT22;38053;53.100;6.078;2023-03-11T16:37:22;4.10;99.90
52044;DHT22;38053;53.100;6.078;2023-03-11T16:39:48;4.20;99.90
52044;DHT22;38053;53.100;6.078;2023-03-11T16:42:23;4.20;99.90
52044;DHT22;38053;53.100;6.078;2023-03-11T16:44:49;4.20;99.90
52044;DHT22;38053;53.100;6.078;2023-03-11T16:47:14;4.10;99.90
52044;DHT22;38053;53.100;6.078;2023-03-11T16:49:40;4.10;99.90
52044;DHT22;38053;53.100;6.078;2023-03-11T16:52:06;4.00;99.90
52044;DHT22;38053;53.100;6.078;2023-03-11T16:54:32;4.00;99.90
52044;DHT22;38053;53.100;6.078;2023-03-11T16:56:57;3.90;99.90
52044;DHT22;38053;53.100;6.078;2023-03-11T16:59:23;3.90;99.90
52044;DHT22;38053;53.100;6.078;2023-03-11T17:01:49;3.80;99.90
52044;DHT22;38053;53.100;6.078;2023-03-11T17:04:14;3.70;99.90
52044;DHT22;38053;53.100;6.078;2023-03-11T17:06:40;3.60;99.90
52044;DHT22;38053;53.100;6.078;2023-03-11T17:09:09;3.50;99.90
52044;DHT22;38053;53.100;6.078;2023-03-11T17:11:35;3.50;99.90
52044;DHT22;38053;53.100;6.078;2023-03-11T17:14:01;3.40;99.90
52044;DHT22;38053;53.100;6.078;2023-03-11T17:16:26;3.30;99.90
52044;DHT22;38053;53.100;6.078;2023-03-11T17:18:52;3.30;99.90
52044;DHT22;38053;53.100;6.078;2023-03-11T17:21:18;3.20;99.90
52044;DHT22;38053;53.100;6.078;2023-03-11T17:23:47;3.10;99.90
52044;DHT22;38053;53.100;6.078;2023-03-11T17:26:15;3.00;99.90
52044;DHT22;38053;53.100;6.078;2023-03-11T17:28:43;3.00;99.90
52044;DHT22;38053;53.100;6.078;2023-03-11T17:31:11;2.90;99.90
52044;DHT22;38053;53.100;6.078;2023-03-11T17:33:38;2.90;99.90
52044;DHT22;38053;53.100;6.078;2023-03-11T17:36:05;2.80;99.90
52044;DHT22;38053;53.100;6.078;2023-03-11T17:38:32;2.80;99.90